Time;durP1;ratioP1;P1;durP2;ratioP2;P2;SDS_P1;SDS_P2;PMS_P1;PMS_P2;Temp;Humidity;BMP_temperature;BMP_pressure;BME280_temperature;BME280_humidity;BME280_pressure;Samples;Min_cycle;Max_cycle;Signal;HPM_P1;HPM_P2
2023/12/12 00:00:35;;;;;;;0.10;0.10;;;;;;;9.19;71.99;100873.53;5038840;28;20053;-86
2023/12/12 00:03:02;;;;;;;0.20;0.20;;;;;;;9.16;72.14;100873.56;5031342;28;20084;-85
2023/12/12 00:05:29;;;;;;;0.15;0.15;;;;;;;9.10;72.23;100873.63;5038278;28;20025;-86
2023/12/12 00:07:55;;;;;;;0.20;0.20;;;;;;;9.08;72.56;100876.31;5040741;28;20311;-86
2023/12/12 00:10:22;;;;;;;0.10;0.10;;;;;;;9.04;72.58;100880.75;5038661;28;20017;-86
2023/12/12 00:12:48;;;;;;;0.88;0.82;;;;;;;9.01;72.59;100880.81;5037778;28;20029;-86
2023/12/12 00:15:14;;;;;;;1.35;0.63;;;;;;;8.97;72.68;100871.19;5035591;28;20032;-85
2023/12/12 00:17:40;;;;;;;0.10;0.10;;;;;;;8.96;72.72;100877.34;5042711;28;20111;-86
2023/12/12 00:20:08;;;;;;;0.10;0.10;;;;;;;8.93;72.47;100866.81;5031404;28;20033;-85
2023/12/12 00:22:36;;;;;;;0.10;0.10;;;;;;;8.92;72.31;100880.03;5035574;28;20029;-85
2023/12/12 00:25:03;;;;;;;0.20;0.20;;;;;;;8.85;72.53;100873.97;5033042;28;20388;-85
2023/12/12 00:27:29;;;;;;;0.10;0.10;;;;;;;8.83;71.91;100881.91;5036046;28;20055;-84
2023/12/12 00:29:55;;;;;;;0.20;0.20;;;;;;;8.70;72.55;100875.03;5037301;28;20025;-84
2023/12/12 00:32:21;;;;;;;0.10;0.10;;;;;;;8.71;72.44;100876.75;5035632;28;20528;-85
2023/12/12 00:34:48;;;;;;;0.10;0.10;;;;;;;8.66;72.49;100874.19;5045377;28;20049;-85
2023/12/12 00:37:14;;;;;;;0.10;0.10;;;;;;;8.61;72.88;100883.94;5037585;28;20029;-84
2023/12/12 00:39:40;;;;;;;0.20;0.20;;;;;;;8.59;72.36;100875.16;5035001;28;20033;-84
2023/12/12 00:42:07;;;;;;;0.10;0.10;;;;;;;8.54;72.67;100879.63;5033795;28;20029;-83
2023/12/12 00:44:35;;;;;;;0.10;0.10;;;;;;;8.53;72.48;100877.84;5031120;28;20060;-84
2023/12/12 00:47:01;;;;;;;0.10;0.10;;;;;;;8.47;72.72;100875.28;5026008;28;20036;-84
2023/12/12 00:49:27;;;;;;;0.20;0.20;;;;;;;8.48;72.39;100874.41;5037921;28;20041;-85
2023/12/12 00:51:53;;;;;;;0.98;0.50;;;;;;;8.46;72.30;100866.50;5034717;28;20055;-84
2023/12/12 00:54:20;;;;;;;0.20;0.20;;;;;;;8.43;72.53;100861.19;5030990;28;20745;-85
2023/12/12 00:56:47;;;;;;;0.10;0.10;;;;;;;8.42;72.12;100860.34;5034619;28;20068;-84
2023/12/12 00:59:14;;;;;;;0.10;0.10;;;;;;;8.41;72.00;100852.41;5031931;28;20025;-85
2023/12/12 01:01:40;;;;;;;0.20;0.20;;;;;;;8.36;72.43;100860.41;5035044;28;20022;-85
2023/12/12 01:04:08;;;;;;;0.20;0.20;;;;;;;8.34;72.30;100856.91;5032881;28;20056;-84
2023/12/12 01:06:34;;;;;;;0.17;0.17;;;;;;;8.30;72.05;100856.94;5048619;28;20016;-79
2023/12/12 01:09:01;;;;;;;0.20;0.20;;;;;;;8.25;72.20;100857.88;5047734;28;20043;-85
2023/12/12 01:11:27;;;;;;;0.10;0.10;;;;;;;8.25;72.08;100860.50;5039064;28;20061;-85
2023/12/12 01:13:53;;;;;;;0.20;0.20;;;;;;;8.25;72.09;100857.00;5040794;28;20033;-85
2023/12/12 01:16:19;;;;;;;0.20;0.20;;;;;;;8.22;72.57;100857.03;5040745;28;20021;-85
2023/12/12 01:18:45;;;;;;;0.20;0.20;;;;;;;8.20;72.59;100859.69;5040784;28;20035;-86
2023/12/12 01:21:12;;;;;;;0.10;0.10;;;;;;;8.18;71.80;100856.16;5039335;28;20456;-85
2023/12/12 01:23:54;;;;;;;0.20;0.20;;;;;;;8.21;72.23;100847.34;5032995;28;20032;-85
2023/12/12 01:26:21;;;;;;;0.20;0.20;;;;;;;8.12;71.74;100852.72;5033732;28;20037;-84
2023/12/12 01:28:48;;;;;;;0.10;0.10;;;;;;;8.09;72.11;100849.22;5037978;28;20485;-83
2023/12/12 01:31:15;;;;;;;0.10;0.10;;;;;;;8.08;72.18;100839.56;5039311;28;20039;-84
2023/12/12 01:33:42;;;;;;;0.15;0.15;;;;;;;8.08;71.61;100842.19;5035752;28;20076;-84
2023/12/12 01:36:09;;;;;;;0.20;0.20;;;;;;;8.10;71.77;100840.41;5040940;28;20438;-84
2023/12/12 01:38:36;;;;;;;0.20;0.20;;;;;;;8.09;71.61;100829.88;5040700;28;20033;-85
2023/12/12 01:41:02;;;;;;;0.10;0.10;;;;;;;8.13;72.26;100828.09;5040848;28;20033;-85
2023/12/12 01:43:30;;;;;;;0.10;0.10;;;;;;;8.15;71.83;100823.66;5040452;28;20045;-84
2023/12/12 01:46:00;;;;;;;0.30;0.30;;;;;;;8.15;72.19;100826.28;5038760;28;20063;-84
2023/12/12 01:48:28;;;;;;;0.20;0.20;;;;;;;8.12;71.89;100818.44;5040494;28;20025;-84
2023/12/12 01:50:55;;;;;;;0.20;0.20;;;;;;;8.12;71.74;100828.97;5038077;28;20124;-85
2023/12/12 01:53:32;;;;;;;0.20;0.20;;;;;;;8.12;71.86;100823.69;5040915;28;20090;-86
2023/12/12 01:56:01;;;;;;;0.10;0.10;;;;;;;8.10;72.28;100824.59;5040231;28;20044;-85
2023/12/12 01:58:28;;;;;;;0.10;0.10;;;;;;;8.07;72.18;100821.09;5037953;28;20044;-84
2023/12/12 02:00:55;;;;;;;3.53;1.50;;;;;;;8.06;71.88;100824.63;5040341;28;20037;-84
2023/12/12 02:03:23;;;;;;;0.20;0.20;;;;;;;8.02;72.28;100831.69;5034602;28;20030;-84
2023/12/12 02:05:49;;;;;;;0.10;0.10;;;;;;;8.01;72.02;100831.72;5039652;28;20095;-85
2023/12/12 02:08:17;;;;;;;0.20;0.20;;;;;;;8.00;72.33;100836.13;5037654;28;20056;-85
2023/12/12 02:10:43;;;;;;;0.15;0.15;;;;;;;8.00;72.33;100819.41;5040797;28;20322;-86
2023/12/12 02:13:11;;;;;;;1.15;1.15;;;;;;;8.01;72.32;100822.06;5036868;28;20025;-84
2023/12/12 02:15:37;;;;;;;0.20;0.20;;;;;;;7.99;71.87;100822.94;5039566;28;20033;-83
2023/12/12 02:18:03;;;;;;;0.20;0.20;;;;;;;7.99;72.30;100829.09;5038884;28;20036;-84
2023/12/12 02:20:29;;;;;;;0.55;0.55;;;;;;;7.98;71.94;100824.72;5039989;28;20025;-84
2023/12/12 02:22:55;;;;;;;0.20;0.20;;;;;;;8.00;72.23;100836.13;5039355;28;20108;-82
2023/12/12 02:25:22;;;;;;;0.10;0.10;;;;;;;7.99;72.17;100829.09;5036484;28;20083;-85
2023/12/12 02:27:48;;;;;;;0.20;0.20;;;;;;;8.01;72.48;100832.59;5037964;28;20405;-85
2023/12/12 02:30:16;;;;;;;0.15;0.15;;;;;;;8.00;72.02;100833.50;5042217;28;20388;-84
2023/12/12 02:32:42;;;;;;;0.10;0.10;;;;;;;7.97;72.56;100827.38;5038622;28;20040;-82
2023/12/12 02:35:08;;;;;;;0.43;0.43;;;;;;;7.95;72.72;100837.94;5038870;28;20035;-84
2023/12/12 02:37:34;;;;;;;0.25;0.25;;;;;;;7.90;72.78;100845.88;5037742;28;20040;-83
2023/12/12 02:40:01;;;;;;;0.20;0.20;;;;;;;7.89;73.06;100838.84;5041227;28;20086;-84
2023/12/12 02:42:27;;;;;;;0.20;0.20;;;;;;;7.89;72.64;100833.59;5041870;28;20033;-85
2023/12/12 02:44:55;;;;;;;0.70;0.65;;;;;;;7.88;72.77;100818.63;5036004;28;20124;-83
2023/12/12 02:47:22;;;;;;;0.20;0.20;;;;;;;7.90;73.41;100821.25;5042442;28;20120;-85
2023/12/12 02:49:49;;;;;;;0.20;0.20;;;;;;;7.88;72.96;100815.13;5041007;28;20113;-86
2023/12/12 02:52:15;;;;;;;0.20;0.20;;;;;;;7.88;72.98;100804.59;5042097;28;20021;-85
2023/12/12 02:54:41;;;;;;;0.20;0.20;;;;;;;7.86;73.26;100803.72;5040273;28;20033;-84
2023/12/12 02:57:08;;;;;;;0.73;0.73;;;;;;;7.83;72.63;100793.22;5040632;28;20040;-84
2023/12/12 02:59:34;;;;;;;0.10;0.10;;;;;;;7.81;72.86;100795.84;5042082;28;20101;-85
2023/12/12 03:02:00;;;;;;;0.30;0.30;;;;;;;7.78;73.00;100788.81;5034023;28;20044;-83
2023/12/12 03:04:26;;;;;;;0.10;0.10;;;;;;;7.75;72.44;100794.16;5032931;28;20072;-84
2023/12/12 03:06:52;;;;;;;0.10;0.10;;;;;;;7.69;72.72;100794.19;5040854;28;20097;-83
2023/12/12 03:09:18;;;;;;;0.20;0.20;;;;;;;7.69;72.76;100801.22;5040681;28;20029;-85
2023/12/12 03:11:45;;;;;;;0.30;0.30;;;;;;;7.66;72.96;100810.03;5040884;28;20434;-84
2023/12/12 03:14:12;;;;;;;0.17;0.17;;;;;;;7.62;72.73;100805.69;5037172;28;20037;-85
2023/12/12 03:16:38;;;;;;;0.10;0.10;;;;;;;7.60;72.15;100799.53;5039380;28;20038;-84
2023/12/12 03:19:04;;;;;;;0.10;0.10;;;;;;;7.59;72.56;100797.81;5041111;28;20034;-84
2023/12/12 03:21:30;;;;;;;0.20;0.20;;;;;;;7.58;72.57;100798.69;5034884;28;20390;-84
2023/12/12 03:23:57;;;;;;;0.20;0.20;;;;;;;7.55;72.27;100796.06;5041179;28;20345;-84
2023/12/12 03:26:24;;;;;;;0.20;0.20;;;;;;;7.52;72.87;100806.66;5043551;28;20085;-83
2023/12/12 03:28:50;;;;;;;2.40;0.98;;;;;;;7.44;72.67;100807.59;5053014;28;20036;-85
2023/12/12 03:31:16;;;;;;;0.20;0.20;;;;;;;7.43;73.20;100805.81;5047206;28;20040;-85
2023/12/12 03:33:42;;;;;;;0.20;0.20;;;;;;;7.43;73.11;100797.91;5045382;28;20034;-85
2023/12/12 03:36:09;;;;;;;0.20;0.20;;;;;;;7.45;73.02;100798.78;5042043;28;20049;-85
2023/12/12 03:38:35;;;;;;;1.10;1.10;;;;;;;7.44;73.05;100799.69;5041621;28;20033;-86
2023/12/12 03:41:01;;;;;;;0.20;0.20;;;;;;;7.46;72.93;100794.38;5045988;28;20040;-84
2023/12/12 03:43:27;;;;;;;0.20;0.20;;;;;;;7.47;73.00;100790.00;5040627;28;20516;-84
2023/12/12 03:45:53;;;;;;;0.15;0.15;;;;;;;7.44;73.17;100786.50;5041675;28;20060;-85
2023/12/12 03:48:20;;;;;;;0.13;0.13;;;;;;;7.42;73.06;100780.34;5041161;28;20457;-85
2023/12/12 03:50:46;;;;;;;0.28;0.28;;;;;;;7.44;72.99;100778.59;5041360;28;20021;-84
2023/12/12 03:53:12;;;;;;;1.17;1.17;;;;;;;7.43;72.73;100776.84;5043717;28;20028;-85
2023/12/12 03:55:38;;;;;;;0.20;0.20;;;;;;;7.45;72.87;100779.44;5037877;28;20531;-82
2023/12/12 03:58:05;;;;;;;0.20;0.20;;;;;;;7.45;72.99;100774.19;5043703;28;20032;-83
2023/12/12 04:00:31;;;;;;;0.20;0.20;;;;;;;7.46;73.17;100768.03;5035375;28;20040;-83
2023/12/12 04:02:58;;;;;;;1.52;1.50;;;;;;;7.49;72.84;100775.03;5036685;28;20055;-84
2023/12/12 04:05:24;;;;;;;0.20;0.20;;;;;;;7.48;72.74;100770.63;5034779;28;20037;-82
2023/12/12 04:07:50;;;;;;;0.13;0.13;;;;;;;7.45;73.31;100768.91;5035974;28;20455;-84
2023/12/12 04:10:16;;;;;;;0.20;0.20;;;;;;;7.44;72.73;100762.78;5036491;28;20108;-84
2023/12/12 04:12:42;;;;;;;0.20;0.20;;;;;;;7.45;72.77;100747.81;5031519;28;20025;-84
2023/12/12 04:15:09;;;;;;;0.20;0.20;;;;;;;7.43;72.76;100750.47;5033116;28;20029;-85
2023/12/12 04:17:35;;;;;;;0.20;0.20;;;;;;;7.41;72.70;100731.19;5035437;28;20025;-85
2023/12/12 04:20:01;;;;;;;0.28;0.28;;;;;;;7.41;72.79;100725.91;5040372;28;20354;-85
2023/12/12 04:22:27;;;;;;;1.05;1.05;;;;;;;7.39;73.29;100714.50;5040770;28;20024;-84
2023/12/12 04:24:54;;;;;;;0.38;0.38;;;;;;;7.38;73.25;100710.09;5041671;28;20025;-84
2023/12/12 04:27:20;;;;;;;0.30;0.30;;;;;;;7.39;73.19;100711.84;5038582;28;20365;-85
2023/12/12 04:29:47;;;;;;;0.20;0.20;;;;;;;7.39;72.84;100710.97;5044704;28;20036;-85
2023/12/12 04:32:13;;;;;;;0.10;0.10;;;;;;;7.40;73.20;100712.72;5038061;28;20025;-85
2023/12/12 04:34:41;;;;;;;0.10;0.10;;;;;;;7.39;72.82;100710.97;5035335;28;20088;-86
2023/12/12 04:37:08;;;;;;;0.15;0.15;;;;;;;7.41;72.77;100709.19;5037995;28;20041;-86
2023/12/12 04:39:36;;;;;;;0.20;0.20;;;;;;;7.42;72.92;100706.53;5041841;28;20033;-83
2023/12/12 04:42:02;;;;;;;0.20;0.20;;;;;;;7.46;72.91;100710.03;5044249;28;20025;-84
2023/12/12 04:44:28;;;;;;;0.20;0.20;;;;;;;7.49;73.53;100711.75;5036478;28;20080;-84
2023/12/12 04:46:54;;;;;;;0.10;0.10;;;;;;;7.52;73.64;100712.59;5042909;28;20127;-85
2023/12/12 04:49:20;;;;;;;0.55;0.40;;;;;;;7.58;73.60;100706.41;5036830;28;20101;-84
2023/12/12 04:51:46;;;;;;;0.10;0.10;;;;;;;7.62;73.71;100702.84;5041937;28;20018;-85
2023/12/12 04:54:13;;;;;;;0.85;0.85;;;;;;;7.70;73.30;100710.66;5039414;28;20515;-85
2023/12/12 04:56:39;;;;;;;0.20;0.20;;;;;;;7.75;73.74;100703.59;5040347;28;20025;-85
2023/12/12 04:59:05;;;;;;;0.30;0.30;;;;;;;7.78;74.06;100709.69;5040210;28;20057;-83
2023/12/12 05:01:31;;;;;;;0.20;0.20;;;;;;;7.86;73.83;100714.03;5038366;28;20048;-85
2023/12/12 05:03:57;;;;;;;0.20;0.20;;;;;;;7.91;73.96;100710.47;5045040;28;20127;-84
2023/12/12 05:06:23;;;;;;;0.40;0.40;;;;;;;7.98;73.95;100711.25;5039167;28;20421;-85
2023/12/12 05:08:49;;;;;;;0.35;0.35;;;;;;;8.03;74.21;100704.16;5040440;28;20029;-86
2023/12/12 05:11:16;;;;;;;4.28;1.00;;;;;;;8.07;73.97;100708.53;5040961;28;20037;-86
2023/12/12 05:13:42;;;;;;;0.20;0.20;;;;;;;8.12;74.13;100708.44;5038612;28;20033;-84
2023/12/12 05:16:09;;;;;;;0.35;0.35;;;;;;;8.17;73.76;100711.03;5042970;28;20458;-83
2023/12/12 05:18:36;;;;;;;0.30;0.30;;;;;;;8.20;74.34;100711.88;5041278;28;20025;-85
2023/12/12 05:21:03;;;;;;;0.20;0.20;;;;;;;8.24;74.24;100707.44;5045351;28;20029;-85
2023/12/12 05:23:29;;;;;;;0.52;0.52;;;;;;;8.27;73.95;100702.09;5044166;28;20497;-84
2023/12/12 05:25:55;;;;;;;0.45;0.45;;;;;;;8.32;74.15;100699.41;5042711;28;20044;-85
2023/12/12 05:28:23;;;;;;;0.20;0.20;;;;;;;8.37;73.93;100695.84;5042274;28;20068;-85
2023/12/12 05:30:49;;;;;;;0.10;0.10;;;;;;;8.41;73.88;100691.34;5044150;28;20060;-85
2023/12/12 05:33:15;;;;;;;0.55;0.55;;;;;;;8.46;74.07;100699.22;5033934;28;20034;-85
2023/12/12 05:35:41;;;;;;;0.20;0.20;;;;;;;8.51;74.53;100697.44;5037823;28;20032;-85
2023/12/12 05:38:08;;;;;;;0.22;0.22;;;;;;;8.55;74.11;100688.59;5039534;28;20031;-83
2023/12/12 05:40:34;;;;;;;0.47;0.47;;;;;;;8.56;74.43;100691.19;5040738;28;20048;-84
2023/12/12 05:43:00;;;;;;;0.32;0.32;;;;;;;8.62;74.65;100692.00;5037219;28;20100;-85
2023/12/12 05:45:26;;;;;;;0.13;0.13;;;;;;;8.65;74.60;100690.19;5041135;28;20043;-86
2023/12/12 05:47:52;;;;;;;0.22;0.22;;;;;;;8.69;74.51;100683.97;5047679;28;20034;-86
2023/12/12 05:50:19;;;;;;;0.10;0.10;;;;;;;8.72;74.34;100686.56;5050240;28;20036;-84
2023/12/12 05:52:45;;;;;;;0.55;0.55;;;;;;;8.77;74.53;100685.63;5043987;28;20033;-85
2023/12/12 05:55:11;;;;;;;0.20;0.20;;;;;;;8.80;74.26;100686.44;5047512;28;20041;-85
2023/12/12 05:57:37;;;;;;;0.20;0.20;;;;;;;8.83;74.31;100678.47;5042245;28;20453;-85
2023/12/12 06:00:05;;;;;;;0.20;0.20;;;;;;;8.85;74.41;100676.69;5042950;28;20102;-85
2023/12/12 06:02:32;;;;;;;0.20;0.20;;;;;;;8.88;74.35;100668.72;5038759;28;20029;-84
2023/12/12 06:04:58;;;;;;;0.10;0.10;;;;;;;8.94;74.45;100670.38;5041137;28;20033;-84
2023/12/12 06:07:24;;;;;;;0.50;0.50;;;;;;;8.94;74.60;100670.38;5044081;28;20101;-85
2023/12/12 06:09:51;;;;;;;1.48;1.38;;;;;;;8.96;74.53;100660.66;5042223;28;20088;-85
2023/12/12 06:12:17;;;;;;;1.42;1.38;;;;;;;9.03;74.67;100667.59;5038829;28;20097;-85
2023/12/12 06:14:44;;;;;;;0.20;0.20;;;;;;;9.04;74.34;100664.03;5036057;28;20036;-84
2023/12/12 06:17:11;;;;;;;2.30;2.05;;;;;;;9.07;74.55;100658.72;5039615;28;20039;-84
2023/12/12 06:19:38;;;;;;;0.82;0.82;;;;;;;9.11;74.48;100656.00;5033504;28;20032;-86
2023/12/12 06:22:04;;;;;;;0.32;0.32;;;;;;;9.13;74.78;100657.72;5046356;28;20043;-84
2023/12/12 06:24:30;;;;;;;0.10;0.10;;;;;;;9.15;74.57;100645.34;5039950;28;20047;-84
2023/12/12 06:26:56;;;;;;;1.48;1.48;;;;;;;9.18;74.51;100644.44;5039369;28;20038;-85
2023/12/12 06:29:22;;;;;;;0.20;0.20;;;;;;;9.20;74.58;100637.38;5044028;28;20026;-85
2023/12/12 06:31:49;;;;;;;0.10;0.10;;;;;;;9.26;74.47;100639.91;5045014;28;20030;-84
2023/12/12 06:34:15;;;;;;;0.20;0.20;;;;;;;9.28;74.55;100635.44;5042579;28;20407;-85
2023/12/12 06:36:41;;;;;;;0.20;0.20;;;;;;;9.29;74.43;100642.47;5041861;28;20524;-85
2023/12/12 06:39:10;;;;;;;0.10;0.10;;;;;;;9.31;74.87;100639.78;5042038;28;20021;-83
2023/12/12 06:41:37;;;;;;;0.20;0.20;;;;;;;9.32;74.75;100629.22;5036548;28;20392;-83
2023/12/12 06:44:03;;;;;;;1.27;1.27;;;;;;;9.34;74.61;100635.31;5036168;28;20033;-83
2023/12/12 06:46:29;;;;;;;0.10;0.10;;;;;;;9.31;74.94;100624.81;5037557;28;20044;-84
2023/12/12 06:48:55;;;;;;;0.20;0.20;;;;;;;9.32;75.06;100623.94;5042259;28;20039;-82
2023/12/12 06:51:22;;;;;;;1.77;1.48;;;;;;;9.36;75.17;100616.81;5038579;28;20035;-85
2023/12/12 06:53:48;;;;;;;0.80;0.80;;;;;;;9.38;75.06;100621.16;5042867;28;20565;-83
2023/12/12 06:56:14;;;;;;;0.40;0.40;;;;;;;9.42;74.84;100615.81;5040960;28;20079;-82
2023/12/12 06:58:40;;;;;;;0.20;0.20;;;;;;;9.45;75.06;100615.75;5041101;28;20018;-84
2023/12/12 07:01:08;;;;;;;0.10;0.10;;;;;;;9.46;75.31;100612.19;5037139;28;20109;-82
2023/12/12 07:03:34;;;;;;;0.10;0.10;;;;;;;9.50;75.10;100606.81;5038029;28;20124;-80
2023/12/12 07:06:02;;;;;;;0.10;0.10;;;;;;;9.55;75.09;100606.75;5034664;28;20030;-82
2023/12/12 07:08:28;;;;;;;0.20;0.20;;;;;;;9.58;75.07;100601.38;5034250;28;20029;-84
2023/12/12 07:10:54;;;;;;;0.10;0.10;;;;;;;9.60;75.35;100602.22;5041221;28;20037;-84
2023/12/12 07:13:21;;;;;;;0.60;0.60;;;;;;;9.64;75.26;100601.25;5035356;28;20025;-84
2023/12/12 07:15:47;;;;;;;0.10;0.10;;;;;;;9.64;75.06;100590.66;5035690;28;20029;-84
2023/12/12 07:18:14;;;;;;;0.10;0.10;;;;;;;9.68;75.26;100587.09;5038264;28;20516;-82
2023/12/12 07:20:41;;;;;;;0.20;0.20;;;;;;;9.69;75.43;100593.22;5034460;28;20076;-83
2023/12/12 07:23:08;;;;;;;0.20;0.20;;;;;;;9.74;75.36;100586.06;5035291;28;20031;-84
2023/12/12 07:25:34;;;;;;;0.20;0.20;;;;;;;9.69;75.47;100587.94;5032451;28;20053;-83
2023/12/12 07:28:00;;;;;;;0.20;0.20;;;;;;;9.70;75.84;100587.91;5037464;28;20128;-82
2023/12/12 07:30:27;;;;;;;0.10;0.10;;;;;;;9.68;75.43;100584.44;5034608;28;20489;-82
2023/12/12 07:32:54;;;;;;;3.60;0.98;;;;;;;9.76;75.62;100583.38;5041157;28;20511;-82
2023/12/12 07:35:21;;;;;;;0.30;0.30;;;;;;;9.73;75.70;100579.03;5042488;28;20030;-83
2023/12/12 07:37:47;;;;;;;3.33;3.13;;;;;;;9.75;75.70;100577.22;5035447;28;20021;-81
2023/12/12 07:40:13;;;;;;;1.83;1.67;;;;;;;9.73;75.88;100567.59;5041077;28;20108;-84
2023/12/12 07:42:39;;;;;;;0.10;0.10;;;;;;;9.79;75.67;100567.47;5042449;28;20028;-80
2023/12/12 07:45:07;;;;;;;0.15;0.15;;;;;;;9.82;75.50;100559.44;5037140;28;20037;-80
2023/12/12 07:47:33;;;;;;;0.20;0.20;;;;;;;9.85;75.71;100565.53;5037288;28;20095;-81
2023/12/12 07:49:59;;;;;;;0.43;0.43;;;;;;;9.83;75.98;100551.50;5036425;28;20029;-83
2023/12/12 07:52:26;;;;;;;1.63;1.55;;;;;;;9.90;75.93;100554.00;5032761;28;20040;-82
2023/12/12 07:54:52;;;;;;;0.20;0.20;;;;;;;9.92;75.68;100550.41;5035906;28;20034;-82
2023/12/12 07:57:18;;;;;;;0.43;0.43;;;;;;;9.96;76.04;100544.16;5035458;28;20034;-83
2023/12/12 07:59:44;;;;;;;0.30;0.30;;;;;;;9.99;75.68;100546.75;5036172;28;20771;-82
2023/12/12 08:02:11;;;;;;;0.20;0.20;;;;;;;10.01;75.78;100547.56;5030341;28;20037;-81
2023/12/12 08:04:37;;;;;;;0.80;0.80;;;;;;;10.03;75.86;100545.75;5028802;28;20567;-80
2023/12/12 08:07:05;;;;;;;0.15;0.15;;;;;;;10.03;75.96;100534.28;5037651;28;20032;-78
2023/12/12 08:09:31;;;;;;;1.70;1.60;;;;;;;10.02;76.13;100540.50;5035589;28;20587;-80
2023/12/12 08:11:57;;;;;;;0.10;0.10;;;;;;;10.01;75.91;100529.03;5043234;28;20017;-79
2023/12/12 08:14:23;;;;;;;0.10;0.10;;;;;;;10.07;76.02;100525.38;5035329;28;20053;-79
2023/12/12 08:16:49;;;;;;;0.10;0.10;;;;;;;10.07;76.02;100527.16;5036131;28;20083;-79
2023/12/12 08:19:16;;;;;;;0.10;0.10;;;;;;;10.05;76.16;100521.88;5040791;28;20104;-79
2023/12/12 08:21:42;;;;;;;0.10;0.10;;;;;;;10.06;75.75;100528.94;5036367;28;20026;-81
2023/12/12 08:24:08;;;;;;;0.10;0.10;;;;;;;10.07;76.04;100532.44;5032519;28;20037;-82
2023/12/12 08:26:43;;;;;;;0.10;0.10;;;;;;;10.16;76.20;100524.31;5032664;28;20033;-82
2023/12/12 08:29:11;;;;;;;0.98;0.98;;;;;;;10.09;76.29;100530.63;5039442;28;20561;-79
2023/12/12 08:31:38;;;;;;;0.50;0.50;;;;;;;10.14;76.00;100523.47;5030378;28;20497;-80
2023/12/12 08:34:04;;;;;;;0.10;0.10;;;;;;;10.19;76.32;100529.50;5037842;28;20029;-80
2023/12/12 08:36:30;;;;;;;0.10;0.10;;;;;;;10.18;76.04;100522.47;5032063;28;20057;-80
2023/12/12 08:38:58;;;;;;;0.20;0.20;;;;;;;10.24;75.98;100530.25;5049116;28;20033;-80
2023/12/12 08:41:28;;;;;;;0.22;0.22;;;;;;;10.25;75.86;100508.19;5042308;28;20040;-80
2023/12/12 08:43:54;;;;;;;0.10;0.10;;;;;;;10.25;76.04;100500.25;5036336;28;20029;-80
2023/12/12 08:46:26;;;;;;;0.20;0.20;;;;;;;10.31;75.89;100502.75;5039950;28;20061;-80
2023/12/12 08:48:54;;;;;;;0.20;0.20;;;;;;;10.36;75.90;100500.88;5037040;28;20038;-82
2023/12/12 08:51:21;;;;;;;0.10;0.10;;;;;;;10.33;76.31;100500.94;5034515;28;20045;-83
2023/12/12 08:53:47;;;;;;;0.10;0.10;;;;;;;10.41;76.34;100489.31;5033421;28;20064;-83
2023/12/12 08:56:16;;;;;;;0.10;0.10;;;;;;;10.44;76.49;100494.53;5036224;28;20029;-82
2023/12/12 08:58:43;;;;;;;0.10;0.10;;;;;;;10.45;76.52;100488.31;5033130;28;20076;-82
2023/12/12 09:01:10;;;;;;;1.73;1.58;;;;;;;10.53;76.80;100481.06;5032986;28;20369;-83
2023/12/12 09:03:36;;;;;;;0.30;0.30;;;;;;;10.56;76.40;100480.97;5034641;28;20096;-82
2023/12/12 09:06:03;;;;;;;0.10;0.10;;;;;;;10.59;76.27;100475.59;5033711;28;20025;-82
2023/12/12 09:08:30;;;;;;;0.40;0.40;;;;;;;10.64;76.19;100472.81;5035055;28;20048;-83
2023/12/12 09:10:56;;;;;;;0.30;0.30;;;;;;;10.63;76.79;100471.06;5041323;28;20029;-83
2023/12/12 09:13:22;;;;;;;0.30;0.30;;;;;;;10.60;76.32;100466.72;5034239;28;20049;-83
2023/12/12 09:15:48;;;;;;;0.10;0.10;;;;;;;10.59;76.40;100459.72;5040647;28;20083;-83
2023/12/12 09:18:15;;;;;;;0.10;0.10;;;;;;;10.63;76.37;100465.78;5038677;28;20056;-83
2023/12/12 09:20:42;;;;;;;0.10;0.10;;;;;;;10.63;76.88;100456.06;5036454;28;20369;-83
2023/12/12 09:23:08;;;;;;;1.95;1.38;;;;;;;10.65;76.16;100464.84;5041661;28;20047;-83
2023/12/12 09:25:34;;;;;;;0.10;0.10;;;;;;;10.70;76.43;100455.91;5034050;28;20108;-84
2023/12/12 09:28:00;;;;;;;0.13;0.13;;;;;;;10.74;76.01;100457.53;5040511;28;20048;-84
2023/12/12 09:30:26;;;;;;;0.70;0.50;;;;;;;10.73;76.67;100456.69;5040135;28;20025;-83
2023/12/12 09:32:52;;;;;;;0.10;0.10;;;;;;;10.81;76.42;100448.53;5036795;28;20069;-84
2023/12/12 09:35:19;;;;;;;0.20;0.20;;;;;;;10.80;76.35;100442.38;5040770;28;20104;-82
2023/12/12 09:37:45;;;;;;;0.20;0.20;;;;;;;10.85;76.28;100426.31;5033036;28;20448;-82
2023/12/12 09:40:11;;;;;;;0.10;0.10;;;;;;;10.92;76.29;100430.53;5038358;28;20123;-83
2023/12/12 09:42:39;;;;;;;0.10;0.10;;;;;;;11.00;76.44;100423.25;5035085;28;20018;-82
2023/12/12 09:45:13;;;;;;;0.10;0.10;;;;;;;11.10;76.75;100422.97;5038664;28;20021;-82
2023/12/12 09:47:42;;;;;;;0.10;0.10;;;;;;;11.14;76.51;100414.00;5038526;28;20041;-83
2023/12/12 09:50:10;;;;;;;0.10;0.10;;;;;;;11.20;76.62;100402.38;5035052;28;20095;-83
2023/12/12 09:52:37;;;;;;;0.10;0.10;;;;;;;11.29;76.28;100396.78;5042305;28;20554;-82
2023/12/12 09:55:03;;;;;;;1.55;1.55;;;;;;;11.29;76.26;100392.34;5036763;28;20109;-81
2023/12/12 09:57:30;;;;;;;0.10;0.10;;;;;;;11.29;76.23;100395.00;5038108;28;20037;-82
2023/12/12 09:59:58;;;;;;;0.15;0.15;;;;;;;11.31;76.09;100379.94;5039327;28;20033;-85
2023/12/12 10:02:30;;;;;;;0.10;0.10;;;;;;;11.36;76.10;100381.56;5040594;28;20179;-84
2023/12/12 10:04:57;;;;;;;0.35;0.35;;;;;;;11.31;75.95;100390.53;5036980;28;20037;-85
2023/12/12 10:07:25;;;;;;;0.10;0.10;;;;;;;11.36;75.72;100381.56;5036333;28;20049;-83
2023/12/12 10:09:51;;;;;;;0.45;0.45;;;;;;;11.39;75.95;100376.16;5039298;28;20064;-83
2023/12/12 10:12:17;;;;;;;0.10;0.10;;;;;;;11.35;76.05;100369.22;5035311;28;20136;-83
2023/12/12 10:14:44;;;;;;;0.17;0.17;;;;;;;11.48;76.21;100368.78;5039293;28;20048;-82
2023/12/12 10:17:11;;;;;;;1.35;1.08;;;;;;;11.59;75.73;100368.44;5039595;28;20026;-84
2023/12/12 10:19:38;;;;;;;3.72;1.95;;;;;;;11.65;75.78;100367.38;5043164;28;20085;-84
2023/12/12 10:22:06;;;;;;;0.10;0.10;;;;;;;11.76;76.13;100367.03;5032986;28;20064;-84
2023/12/12 10:24:32;;;;;;;0.10;0.10;;;;;;;11.80;76.31;100363.34;5042390;28;20029;-84
2023/12/12 10:26:59;;;;;;;0.10;0.10;;;;;;;11.87;75.78;100364.88;5037118;28;20037;-84
2023/12/12 10:29:25;;;;;;;0.10;0.10;;;;;;;11.89;75.58;100355.09;5044277;28;20025;-84
2023/12/12 10:31:53;;;;;;;0.17;0.17;;;;;;;11.89;75.99;100355.09;5047754;28;20049;-83
2023/12/12 10:34:23;;;;;;;0.28;0.28;;;;;;;11.95;75.92;100343.38;5046310;28;20029;-85
2023/12/12 10:36:49;;;;;;;0.10;0.10;;;;;;;11.98;75.77;100344.19;5045882;28;20030;-84
2023/12/12 10:39:16;;;;;;;0.17;0.17;;;;;;;11.95;75.20;100344.28;5042337;28;20021;-84
2023/12/12 10:41:57;;;;;;;0.10;0.10;;;;;;;12.04;75.50;100337.81;5047991;28;20082;-86
2023/12/12 10:44:32;;;;;;;0.82;0.82;;;;;;;11.98;74.75;100336.22;5038365;28;20049;-85
2023/12/12 10:47:03;;;;;;;0.10;0.10;;;;;;;12.00;75.32;100324.69;5047374;28;20033;-85
2023/12/12 10:49:32;;;;;;;0.13;0.13;;;;;;;12.04;74.82;100315.72;5043296;28;20053;-84
2023/12/12 10:52:03;;;;;;;0.82;0.82;;;;;;;12.05;75.50;100318.31;5048287;28;20029;-83
2023/12/12 10:54:33;;;;;;;0.25;0.25;;;;;;;12.09;75.14;100311.09;5043100;28;20037;-84
2023/12/12 10:57:01;;;;;;;0.10;0.10;;;;;;;12.14;75.05;100312.66;5048660;28;20025;-84
2023/12/12 10:59:28;;;;;;;0.10;0.10;;;;;;;12.09;75.23;100297.84;5041942;28;20055;-83
2023/12/12 11:01:56;;;;;;;0.10;0.10;;;;;;;12.13;74.78;100294.13;5040068;28;20034;-84
2023/12/12 11:04:24;;;;;;;0.10;0.10;;;;;;;12.18;75.22;100292.19;5048074;28;20033;-84
2023/12/12 11:06:51;;;;;;;0.10;0.10;;;;;;;12.19;74.96;100283.28;5046945;28;20127;-84
2023/12/12 11:09:19;;;;;;;0.10;0.10;;;;;;;12.28;75.19;100277.63;5041894;28;20045;-85
2023/12/12 11:11:48;;;;;;;0.10;0.10;;;;;;;12.40;75.26;100270.13;5047790;28;20026;-84
2023/12/12 11:14:17;;;;;;;0.50;0.50;;;;;;;12.43;75.07;100264.72;5048421;28;20052;-86
2023/12/12 11:16:44;;;;;;;0.20;0.20;;;;;;;12.39;74.32;100261.31;5053321;28;20093;-85
2023/12/12 11:19:18;;;;;;;0.20;0.20;;;;;;;12.49;74.71;100263.66;5052889;28;20037;-85
2023/12/12 11:21:48;;;;;;;0.10;0.10;;;;;;;12.46;74.56;100248.66;5051390;28;20097;-85
2023/12/12 11:24:17;;;;;;;0.10;0.10;;;;;;;12.55;74.52;100245.69;5047402;28;20116;-84
2023/12/12 11:26:46;;;;;;;1.35;0.85;;;;;;;12.62;74.24;100233.91;5045638;28;20543;-84
2023/12/12 11:29:14;;;;;;;0.25;0.25;;;;;;;12.58;74.58;100242.88;5045998;28;20026;-85